sensor_id;sensor_type;location;lat;lon;timestamp;temperature;humidity
20398;DHT22;10358;49.590;11.030;2023-07-31T00:00:06;17.00;99.90
20398;DHT22;10358;49.590;11.030;2023-07-31T00:02:34;17.00;99.90
20398;DHT22;10358;49.590;11.030;2023-07-31T00:05:00;17.00;99.90
20398;DHT22;10358;49.590;11.030;2023-07-31T00:07:26;16.90;99.90
20398;DHT22;10358;49.590;11.030;2023-07-31T00:16:35;16.90;99.90
20398;DHT22;10358;49.590;11.030;2023-07-31T00:19:01;16.90;99.90
20398;DHT22;10358;49.590;11.030;2023-07-31T00:21:26;16.90;99.90
20398;DHT22;10358;49.590;11.030;2023-07-31T00:23:52;16.90;99.90
20398;DHT22;10358;49.590;11.030;2023-07-31T00:26:17;17.00;99.90
20398;DHT22;10358;49.590;11.030;2023-07-31T00:28:43;17.00;99.90
20398;DHT22;10358;49.590;11.030;2023-07-31T00:31:08;17.00;99.90
20398;DHT22;10358;49.590;11.030;2023-07-31T00:33:35;17.00;99.90
20398;DHT22;10358;49.590;11.030;2023-07-31T00:36:00;17.00;99.90
20398;DHT22;10358;49.590;11.030;2023-07-31T00:38:26;17.00;99.90
20398;DHT22;10358;49.590;11.030;2023-07-31T00:40:51;17.10;99.90
20398;DHT22;10358;49.590;11.030;2023-07-31T00:43:17;17.00;99.90
20398;DHT22;10358;49.590;11.030;2023-07-31T00:45:42;17.10;99.90
20398;DHT22;10358;49.590;11.030;2023-07-31T00:48:08;17.10;99.90
20398;DHT22;10358;49.590;11.030;2023-07-31T00:50:35;17.10;99.90
20398;DHT22;10358;49.590;11.030;2023-07-31T00:53:01;17.10;99.90
20398;DHT22;10358;49.590;11.030;2023-07-31T00:55:26;17.20;99.90
20398;DHT22;10358;49.590;11.030;2023-07-31T00:57:52;17.10;99.90
20398;DHT22;10358;49.590;11.030;2023-07-31T01:00:21;17.20;99.90
20398;DHT22;10358;49.590;11.030;2023-07-31T01:02:50;17.10;99.90
20398;DHT22;10358;49.590;11.030;2023-07-31T01:05:22;17.20;99.90
20398;DHT22;10358;49.590;11.030;2023-07-31T01:08:02;17.10;99.90
20398;DHT22;10358;49.590;11.030;2023-07-31T01:10:37;17.20;99.90
20398;DHT22;10358;49.590;11.030;2023-07-31T01:13:07;17.20;99.90
20398;DHT22;10358;49.590;11.030;2023-07-31T01:15:33;17.10;99.90
20398;DHT22;10358;49.590;11.030;2023-07-31T01:17:59;17.30;99.90
20398;DHT22;10358;49.590;11.030;2023-07-31T01:20:26;17.20;99.90
20398;DHT22;10358;49.590;11.030;2023-07-31T01:26:05;17.30;99.90
20398;DHT22;10358;49.590;11.030;2023-07-31T01:29:03;17.30;99.90
20398;DHT22;10358;49.590;11.030;2023-07-31T01:31:29;17.30;99.90
20398;DHT22;10358;49.590;11.030;2023-07-31T01:34:00;17.40;99.90
20398;DHT22;10358;49.590;11.030;2023-07-31T01:36:26;17.40;99.90
20398;DHT22;10358;49.590;11.030;2023-07-31T01:38:52;17.30;99.90
20398;DHT22;10358;49.590;11.030;2023-07-31T01:41:18;17.30;99.90
20398;DHT22;10358;49.590;11.030;2023-07-31T01:43:44;17.30;99.90
20398;DHT22;10358;49.590;11.030;2023-07-31T01:46:10;17.30;99.90
20398;DHT22;10358;49.590;11.030;2023-07-31T01:48:36;17.30;99.90
20398;DHT22;10358;49.590;11.030;2023-07-31T01:51:02;17.30;99.90
20398;DHT22;10358;49.590;11.030;2023-07-31T01:53:29;17.30;99.90
20398;DHT22;10358;49.590;11.030;2023-07-31T01:55:55;17.40;99.90
20398;DHT22;10358;49.590;11.030;2023-07-31T01:58:20;17.40;99.90
20398;DHT22;10358;49.590;11.030;2023-07-31T02:00:46;17.40;99.90
20398;DHT22;10358;49.590;11.030;2023-07-31T02:03:11;17.30;99.90
20398;DHT22;10358;49.590;11.030;2023-07-31T02:05:44;17.30;99.90
20398;DHT22;10358;49.590;11.030;2023-07-31T02:08:10;17.30;99.90
20398;DHT22;10358;49.590;11.030;2023-07-31T02:10:35;17.40;99.90
20398;DHT22;10358;49.590;11.030;2023-07-31T02:13:01;17.30;99.90
20398;DHT22;10358;49.590;11.030;2023-07-31T02:15:26;17.30;99.90
20398;DHT22;10358;49.590;11.030;2023-07-31T02:17:52;17.30;99.90
20398;DHT22;10358;49.590;11.030;2023-07-31T02:20:17;17.30;99.90
20398;DHT22;10358;49.590;11.030;2023-07-31T02:22:43;17.30;99.90
20398;DHT22;10358;49.590;11.030;2023-07-31T02:25:08;17.30;99.90
20398;DHT22;10358;49.590;11.030;2023-07-31T02:27:34;17.40;99.90
20398;DHT22;10358;49.590;11.030;2023-07-31T02:29:59;17.30;99.90
20398;DHT22;10358;49.590;11.030;2023-07-31T02:32:25;17.40;99.90
20398;DHT22;10358;49.590;11.030;2023-07-31T02:34:51;17.40;99.90
20398;DHT22;10358;49.590;11.030;2023-07-31T02:37:16;17.40;99.90
20398;DHT22;10358;49.590;11.030;2023-07-31T02:39:42;17.40;99.90
20398;DHT22;10358;49.590;11.030;2023-07-31T02:42:07;17.40;99.90
20398;DHT22;10358;49.590;11.030;2023-07-31T02:44:33;17.40;99.90
20398;DHT22;10358;49.590;11.030;2023-07-31T02:46:58;17.40;99.90
20398;DHT22;10358;49.590;11.030;2023-07-31T02:49:24;17.40;99.90
20398;DHT22;10358;49.590;11.030;2023-07-31T02:51:50;17.40;99.90
20398;DHT22;10358;49.590;11.030;2023-07-31T02:54:15;17.30;99.90
20398;DHT22;10358;49.590;11.030;2023-07-31T02:56:41;17.30;99.90
20398;DHT22;10358;49.590;11.030;2023-07-31T02:59:06;17.30;99.90
20398;DHT22;10358;49.590;11.030;2023-07-31T03:01:32;17.40;99.90
20398;DHT22;10358;49.590;11.030;2023-07-31T03:03:57;17.30;99.90
20398;DHT22;10358;49.590;11.030;2023-07-31T03:06:23;17.30;99.90
20398;DHT22;10358;49.590;11.030;2023-07-31T03:08:48;17.30;99.90
20398;DHT22;10358;49.590;11.030;2023-07-31T03:11:14;17.30;99.90
20398;DHT22;10358;49.590;11.030;2023-07-31T03:13:39;17.30;99.90
20398;DHT22;10358;49.590;11.030;2023-07-31T03:16:05;17.30;99.90
20398;DHT22;10358;49.590;11.030;2023-07-31T03:18:31;17.30;99.90
20398;DHT22;10358;49.590;11.030;2023-07-31T03:20:56;17.30;99.90
20398;DHT22;10358;49.590;11.030;2023-07-31T03:23:22;17.30;99.90
20398;DHT22;10358;49.590;11.030;2023-07-31T03:26:01;17.30;99.90
20398;DHT22;10358;49.590;11.030;2023-07-31T03:28:29;17.30;99.90
20398;DHT22;10358;49.590;11.030;2023-07-31T03:30:55;17.30;99.90
20398;DHT22;10358;49.590;11.030;2023-07-31T03:33:20;17.30;99.90
20398;DHT22;10358;49.590;11.030;2023-07-31T03:35:46;17.30;99.90
20398;DHT22;10358;49.590;11.030;2023-07-31T03:38:12;17.30;99.90
20398;DHT22;10358;49.590;11.030;2023-07-31T03:40:37;17.30;99.90
20398;DHT22;10358;49.590;11.030;2023-07-31T03:43:03;17.30;99.90
20398;DHT22;10358;49.590;11.030;2023-07-31T03:45:28;17.30;99.90
20398;DHT22;10358;49.590;11.030;2023-07-31T03:47:54;17.30;99.90
20398;DHT22;10358;49.590;11.030;2023-07-31T03:50:20;17.30;99.90
20398;DHT22;10358;49.590;11.030;2023-07-31T03:52:46;17.30;99.90
20398;DHT22;10358;49.590;11.030;2023-07-31T03:55:11;17.30;99.90
20398;DHT22;10358;49.590;11.030;2023-07-31T03:57:37;17.30;99.90
20398;DHT22;10358;49.590;11.030;2023-07-31T04:00:03;17.30;99.90
20398;DHT22;10358;49.590;11.030;2023-07-31T04:02:29;17.30;99.90
20398;DHT22;10358;49.590;11.030;2023-07-31T04:04:54;17.30;99.90
20398;DHT22;10358;49.590;11.030;2023-07-31T04:07:20;17.30;99.90
20398;DHT22;10358;49.590;11.030;2023-07-31T04:09:45;17.30;99.90
20398;DHT22;10358;49.590;11.030;2023-07-31T04:12:11;17.20;99.90
20398;DHT22;10358;49.590;11.030;2023-07-31T04:14:37;17.30;99.90
20398;DHT22;10358;49.590;11.030;2023-07-31T04:17:02;17.30;99.90
20398;DHT22;10358;49.590;11.030;2023-07-31T04:19:28;17.30;99.90
20398;DHT22;10358;49.590;11.030;2023-07-31T04:21:53;17.20;99.90
20398;DHT22;10358;49.590;11.030;2023-07-31T04:24:19;17.20;99.90
20398;DHT22;10358;49.590;11.030;2023-07-31T04:26:50;17.20;99.90
20398;DHT22;10358;49.590;11.030;2023-07-31T04:29:15;17.10;99.90
20398;DHT22;10358;49.590;11.030;2023-07-31T04:31:41;17.10;99.90
20398;DHT22;10358;49.590;11.030;2023-07-31T04:34:07;17.00;99.90
20398;DHT22;10358;49.590;11.030;2023-07-31T04:36:33;17.00;99.90
20398;DHT22;10358;49.590;11.030;2023-07-31T04:38:59;17.10;99.90
20398;DHT22;10358;49.590;11.030;2023-07-31T04:41:25;17.10;99.90
20398;DHT22;10358;49.590;11.030;2023-07-31T04:43:50;17.20;99.90
20398;DHT22;10358;49.590;11.030;2023-07-31T04:46:16;17.20;99.90
20398;DHT22;10358;49.590;11.030;2023-07-31T04:48:42;17.20;99.90
20398;DHT22;10358;49.590;11.030;2023-07-31T04:51:08;17.30;99.90
20398;DHT22;10358;49.590;11.030;2023-07-31T04:53:34;17.30;99.90
20398;DHT22;10358;49.590;11.030;2023-07-31T04:56:00;17.30;99.90
20398;DHT22;10358;49.590;11.030;2023-07-31T04:58:26;17.30;99.90
20398;DHT22;10358;49.590;11.030;2023-07-31T05:00:52;17.30;99.90
20398;DHT22;10358;49.590;11.030;2023-07-31T05:03:17;17.40;99.90
20398;DHT22;10358;49.590;11.030;2023-07-31T05:05:43;17.40;99.90
20398;DHT22;10358;49.590;11.030;2023-07-31T05:08:08;17.40;99.90
20398;DHT22;10358;49.590;11.030;2023-07-31T05:10:34;17.50;99.90
20398;DHT22;10358;49.590;11.030;2023-07-31T05:12:59;17.60;99.90
20398;DHT22;10358;49.590;11.030;2023-07-31T05:15:25;17.60;99.90
20398;DHT22;10358;49.590;11.030;2023-07-31T05:17:50;17.70;99.90
20398;DHT22;10358;49.590;11.030;2023-07-31T05:20:16;17.70;99.90
20398;DHT22;10358;49.590;11.030;2023-07-31T05:22:42;17.70;99.90
20398;DHT22;10358;49.590;11.030;2023-07-31T05:25:08;17.80;99.90
20398;DHT22;10358;49.590;11.030;2023-07-31T05:27:33;17.80;99.90
20398;DHT22;10358;49.590;11.030;2023-07-31T05:29:59;17.90;99.90
20398;DHT22;10358;49.590;11.030;2023-07-31T05:32:24;18.00;99.90
20398;DHT22;10358;49.590;11.030;2023-07-31T05:34:53;17.90;99.90
20398;DHT22;10358;49.590;11.030;2023-07-31T05:37:19;17.90;99.90
20398;DHT22;10358;49.590;11.030;2023-07-31T05:39:45;18.00;99.90
20398;DHT22;10358;49.590;11.030;2023-07-31T05:42:10;18.00;99.90
20398;DHT22;10358;49.590;11.030;2023-07-31T05:44:36;18.00;99.90
20398;DHT22;10358;49.590;11.030;2023-07-31T05:47:01;18.00;99.90
20398;DHT22;10358;49.590;11.030;2023-07-31T05:49:27;18.00;99.90
20398;DHT22;10358;49.590;11.030;2023-07-31T05:51:52;18.00;99.90
20398;DHT22;10358;49.590;11.030;2023-07-31T05:54:18;18.10;99.90
20398;DHT22;10358;49.590;11.030;2023-07-31T05:56:44;18.10;99.90
20398;DHT22;10358;49.590;11.030;2023-07-31T05:59:12;18.30;99.90
20398;DHT22;10358;49.590;11.030;2023-07-31T06:01:37;18.30;99.90
20398;DHT22;10358;49.590;11.030;2023-07-31T06:04:03;18.30;99.90
20398;DHT22;10358;49.590;11.030;2023-07-31T06:06:29;18.30;99.90
20398;DHT22;10358;49.590;11.030;2023-07-31T06:08:56;18.30;99.90
20398;DHT22;10358;49.590;11.030;2023-07-31T06:11:21;18.40;99.90
20398;DHT22;10358;49.590;11.030;2023-07-31T06:13:47;18.40;99.90
20398;DHT22;10358;49.590;11.030;2023-07-31T06:16:14;18.40;99.90
20398;DHT22;10358;49.590;11.030;2023-07-31T06:18:40;18.50;99.90
20398;DHT22;10358;49.590;11.030;2023-07-31T06:21:06;18.50;99.90
20398;DHT22;10358;49.590;11.030;2023-07-31T06:23:32;18.50;99.90
20398;DHT22;10358;49.590;11.030;2023-07-31T06:25:57;18.60;99.90
20398;DHT22;10358;49.590;11.030;2023-07-31T06:28:30;18.60;99.90
20398;DHT22;10358;49.590;11.030;2023-07-31T06:30:56;18.60;99.90
20398;DHT22;10358;49.590;11.030;2023-07-31T06:33:22;18.60;99.90
20398;DHT22;10358;49.590;11.030;2023-07-31T06:35:48;18.80;99.90
20398;DHT22;10358;49.590;11.030;2023-07-31T06:38:13;18.90;99.90
20398;DHT22;10358;49.590;11.030;2023-07-31T06:40:39;19.00;99.90
20398;DHT22;10358;49.590;11.030;2023-07-31T06:43:05;19.10;99.90
20398;DHT22;10358;49.590;11.030;2023-07-31T06:45:36;19.20;99.90
20398;DHT22;10358;49.590;11.030;2023-07-31T06:48:02;19.30;99.90
20398;DHT22;10358;49.590;11.030;2023-07-31T06:50:29;19.30;99.90
20398;DHT22;10358;49.590;11.030;2023-07-31T06:52:55;19.40;99.90
20398;DHT22;10358;49.590;11.030;2023-07-31T06:55:21;19.40;99.90
20398;DHT22;10358;49.590;11.030;2023-07-31T06:57:48;19.60;99.90
20398;DHT22;10358;49.590;11.030;2023-07-31T07:00:15;19.80;99.90
20398;DHT22;10358;49.590;11.030;2023-07-31T07:02:41;19.80;99.90
20398;DHT22;10358;49.590;11.030;2023-07-31T07:05:07;19.90;99.90
20398;DHT22;10358;49.590;11.030;2023-07-31T07:07:33;19.90;99.90
20398;DHT22;10358;49.590;11.030;2023-07-31T07:09:59;20.00;99.90
20398;DHT22;10358;49.590;11.030;2023-07-31T07:12:25;20.00;99.90
20398;DHT22;10358;49.590;11.030;2023-07-31T07:14:51;20.00;99.90
20398;DHT22;10358;49.590;11.030;2023-07-31T07:17:18;20.10;99.90
20398;DHT22;10358;49.590;11.030;2023-07-31T07:19:44;20.10;99.90
20398;DHT22;10358;49.590;11.030;2023-07-31T07:22:11;20.10;99.90
20398;DHT22;10358;49.590;11.030;2023-07-31T07:24:36;20.20;99.90
20398;DHT22;10358;49.590;11.030;2023-07-31T07:27:02;20.10;99.90
20398;DHT22;10358;49.590;11.030;2023-07-31T07:29:28;20.00;99.90
20398;DHT22;10358;49.590;11.030;2023-07-31T07:31:53;19.90;99.90
20398;DHT22;10358;49.590;11.030;2023-07-31T07:34:19;19.80;99.90
20398;DHT22;10358;49.590;11.030;2023-07-31T07:36:44;19.80;99.90
20398;DHT22;10358;49.590;11.030;2023-07-31T07:39:11;19.70;99.90
20398;DHT22;10358;49.590;11.030;2023-07-31T07:41:36;19.70;99.90
20398;DHT22;10358;49.590;11.030;2023-07-31T07:44:02;19.70;99.90
20398;DHT22;10358;49.590;11.030;2023-07-31T07:46:27;19.70;99.90
20398;DHT22;10358;49.590;11.030;2023-07-31T07:48:53;19.80;99.90
20398;DHT22;10358;49.590;11.030;2023-07-31T07:51:18;19.80;99.90
20398;DHT22;10358;49.590;11.030;2023-07-31T07:53:44;19.90;99.90
20398;DHT22;10358;49.590;11.030;2023-07-31T07:56:09;20.00;99.90
20398;DHT22;10358;49.590;11.030;2023-07-31T07:58:35;20.00;99.90
20398;DHT22;10358;49.590;11.030;2023-07-31T08:01:01;20.10;99.90
20398;DHT22;10358;49.590;11.030;2023-07-31T08:03:26;20.20;99.90
20398;DHT22;10358;49.590;11.030;2023-07-31T08:05:52;20.20;99.90
20398;DHT22;10358;49.590;11.030;2023-07-31T08:08:17;20.30;99.90
20398;DHT22;10358;49.590;11.030;2023-07-31T08:10:43;20.50;99.90
20398;DHT22;10358;49.590;11.030;2023-07-31T08:13:12;20.50;99.90
20398;DHT22;10358;49.590;11.030;2023-07-31T08:15:37;20.60;99.90
20398;DHT22;10358;49.590;11.030;2023-07-31T08:18:03;20.70;99.90
20398;DHT22;10358;49.590;11.030;2023-07-31T08:20:28;20.90;99.90
20398;DHT22;10358;49.590;11.030;2023-07-31T08:22:54;20.90;99.90
20398;DHT22;10358;49.590;11.030;2023-07-31T08:25:20;20.90;99.90
20398;DHT22;10358;49.590;11.030;2023-07-31T08:27:45;21.00;99.90
20398;DHT22;10358;49.590;11.030;2023-07-31T08:30:12;21.10;99.90
20398;DHT22;10358;49.590;11.030;2023-07-31T08:32:37;21.10;99.90
20398;DHT22;10358;49.590;11.030;2023-07-31T08:35:03;21.10;99.90
20398;DHT22;10358;49.590;11.030;2023-07-31T08:37:29;21.20;99.90
20398;DHT22;10358;49.590;11.030;2023-07-31T08:39:54;21.20;99.90
20398;DHT22;10358;49.590;11.030;2023-07-31T08:42:20;21.30;99.90
20398;DHT22;10358;49.590;11.030;2023-07-31T08:44:46;21.20;99.90
20398;DHT22;10358;49.590;11.030;2023-07-31T08:47:13;21.20;99.90
20398;DHT22;10358;49.590;11.030;2023-07-31T08:49:39;21.20;99.90
20398;DHT22;10358;49.590;11.030;2023-07-31T08:52:06;21.20;99.90
20398;DHT22;10358;49.590;11.030;2023-07-31T08:54:32;21.20;99.90
20398;DHT22;10358;49.590;11.030;2023-07-31T08:56:58;21.20;99.90
20398;DHT22;10358;49.590;11.030;2023-07-31T08:59:28;21.30;99.90
20398;DHT22;10358;49.590;11.030;2023-07-31T09:01:55;21.50;99.90
20398;DHT22;10358;49.590;11.030;2023-07-31T09:04:23;21.60;99.90
20398;DHT22;10358;49.590;11.030;2023-07-31T09:06:55;21.70;99.90
20398;DHT22;10358;49.590;11.030;2023-07-31T09:09:22;21.80;99.90
20398;DHT22;10358;49.590;11.030;2023-07-31T09:11:49;21.80;99.90
20398;DHT22;10358;49.590;11.030;2023-07-31T09:14:15;21.90;99.90
20398;DHT22;10358;49.590;11.030;2023-07-31T09:16:55;21.90;99.90
20398;DHT22;10358;49.590;11.030;2023-07-31T09:19:34;22.10;99.90
20398;DHT22;10358;49.590;11.030;2023-07-31T09:22:02;22.30;99.90
20398;DHT22;10358;49.590;11.030;2023-07-31T09:24:29;22.40;99.90
20398;DHT22;10358;49.590;11.030;2023-07-31T09:26:56;22.40;99.90
20398;DHT22;10358;49.590;11.030;2023-07-31T09:29:25;22.40;99.90
20398;DHT22;10358;49.590;11.030;2023-07-31T09:31:54;22.50;99.90
20398;DHT22;10358;49.590;11.030;2023-07-31T09:34:36;22.60;99.90
20398;DHT22;10358;49.590;11.030;2023-07-31T09:37:04;22.70;99.90
20398;DHT22;10358;49.590;11.030;2023-07-31T09:39:30;22.70;99.90
20398;DHT22;10358;49.590;11.030;2023-07-31T09:41:57;22.70;99.90
20398;DHT22;10358;49.590;11.030;2023-07-31T09:44:40;22.60;99.90
20398;DHT22;10358;49.590;11.030;2023-07-31T09:47:22;22.40;99.90
20398;DHT22;10358;49.590;11.030;2023-07-31T09:49:51;22.40;99.90
20398;DHT22;10358;49.590;11.030;2023-07-31T09:52:17;22.40;99.90
20398;DHT22;10358;49.590;11.030;2023-07-31T09:54:42;22.40;99.90
20398;DHT22;10358;49.590;11.030;2023-07-31T09:57:08;22.30;99.90
20398;DHT22;10358;49.590;11.030;2023-07-31T09:59:35;22.10;99.90
20398;DHT22;10358;49.590;11.030;2023-07-31T10:02:01;22.10;99.90
20398;DHT22;10358;49.590;11.030;2023-07-31T10:04:30;22.10;99.90
20398;DHT22;10358;49.590;11.030;2023-07-31T10:06:56;22.10;99.90
20398;DHT22;10358;49.590;11.030;2023-07-31T10:09:25;22.10;99.90
20398;DHT22;10358;49.590;11.030;2023-07-31T10:11:57;22.20;99.90
20398;DHT22;10358;49.590;11.030;2023-07-31T10:14:26;22.30;99.90
20398;DHT22;10358;49.590;11.030;2023-07-31T10:16:53;22.30;99.90
20398;DHT22;10358;49.590;11.030;2023-07-31T10:19:19;22.30;99.90
20398;DHT22;10358;49.590;11.030;2023-07-31T10:21:46;22.40;99.90
20398;DHT22;10358;49.590;11.030;2023-07-31T10:24:14;22.40;99.90
20398;DHT22;10358;49.590;11.030;2023-07-31T10:26:41;22.30;99.90
20398;DHT22;10358;49.590;11.030;2023-07-31T10:29:09;22.50;99.90
20398;DHT22;10358;49.590;11.030;2023-07-31T10:31:35;22.50;99.90
20398;DHT22;10358;49.590;11.030;2023-07-31T10:34:01;22.50;99.90
20398;DHT22;10358;49.590;11.030;2023-07-31T10:36:28;22.50;99.90
20398;DHT22;10358;49.590;11.030;2023-07-31T10:38:55;22.60;99.90
20398;DHT22;10358;49.590;11.030;2023-07-31T10:41:31;22.80;99.90
20398;DHT22;10358;49.590;11.030;2023-07-31T10:43:59;22.90;99.90
20398;DHT22;10358;49.590;11.030;2023-07-31T10:46:24;23.00;99.90
20398;DHT22;10358;49.590;11.030;2023-07-31T10:48:58;23.10;99.90
20398;DHT22;10358;49.590;11.030;2023-07-31T10:51:35;23.20;99.90
20398;DHT22;10358;49.590;11.030;2023-07-31T10:54:16;23.20;99.90
20398;DHT22;10358;49.590;11.030;2023-07-31T10:56:50;23.20;99.90
20398;DHT22;10358;49.590;11.030;2023-07-31T10:59:18;23.10;99.90
20398;DHT22;10358;49.590;11.030;2023-07-31T17:53:26;22.50;95.00
20398;DHT22;10358;49.590;11.030;2023-07-31T17:55:52;22.30;95.20
20398;DHT22;10358;49.590;11.030;2023-07-31T17:58:18;22.30;95.10
20398;DHT22;10358;49.590;11.030;2023-07-31T18:00:43;22.20;95.10
20398;DHT22;10358;49.590;11.030;2023-07-31T18:03:11;22.20;95.10
20398;DHT22;10358;49.590;11.030;2023-07-31T18:05:51;22.10;95.20
20398;DHT22;10358;49.590;11.030;2023-07-31T18:08:16;22.10;95.30
20398;DHT22;10358;49.590;11.030;2023-07-31T18:10:51;21.90;95.30
20398;DHT22;10358;49.590;11.030;2023-07-31T18:13:17;21.90;95.40
20398;DHT22;10358;49.590;11.030;2023-07-31T18:15:51;21.80;95.60
20398;DHT22;10358;49.590;11.030;2023-07-31T18:18:17;21.80;95.80
20398;DHT22;10358;49.590;11.030;2023-07-31T18:20:43;21.80;95.90
20398;DHT22;10358;49.590;11.030;2023-07-31T18:23:08;21.80;95.90
20398;DHT22;10358;49.590;11.030;2023-07-31T18:25:34;21.80;96.10
20398;DHT22;10358;49.590;11.030;2023-07-31T18:28:00;21.70;96.20
20398;DHT22;10358;49.590;11.030;2023-07-31T18:30:25;21.70;96.40
20398;DHT22;10358;49.590;11.030;2023-07-31T18:32:51;21.60;96.10
20398;DHT22;10358;49.590;11.030;2023-07-31T18:35:16;21.60;96.00
20398;DHT22;10358;49.590;11.030;2023-07-31T18:37:44;21.60;96.10
20398;DHT22;10358;49.590;11.030;2023-07-31T18:40:11;21.60;96.50
20398;DHT22;10358;49.590;11.030;2023-07-31T18:42:36;21.50;96.60
20398;DHT22;10358;49.590;11.030;2023-07-31T18:45:02;21.50;96.80
20398;DHT22;10358;49.590;11.030;2023-07-31T18:47:28;21.50;97.00
20398;DHT22;10358;49.590;11.030;2023-07-31T18:49:54;21.50;97.30
20398;DHT22;10358;49.590;11.030;2023-07-31T18:52:19;21.50;97.30
20398;DHT22;10358;49.590;11.030;2023-07-31T18:54:45;21.40;97.40
20398;DHT22;10358;49.590;11.030;2023-07-31T18:57:10;21.40;97.60
20398;DHT22;10358;49.590;11.030;2023-07-31T18:59:36;21.40;97.80
20398;DHT22;10358;49.590;11.030;2023-07-31T19:02:01;21.30;98.00
20398;DHT22;10358;49.590;11.030;2023-07-31T19:04:27;21.30;98.20
20398;DHT22;10358;49.590;11.030;2023-07-31T19:06:52;21.30;98.30
20398;DHT22;10358;49.590;11.030;2023-07-31T19:09:28;21.20;98.50
20398;DHT22;10358;49.590;11.030;2023-07-31T19:11:54;21.20;98.70
20398;DHT22;10358;49.590;11.030;2023-07-31T19:14:19;21.20;98.80
20398;DHT22;10358;49.590;11.030;2023-07-31T19:16:45;21.20;99.00
20398;DHT22;10358;49.590;11.030;2023-07-31T19:19:10;21.10;99.40
20398;DHT22;10358;49.590;11.030;2023-07-31T19:21:36;21.10;99.70
20398;DHT22;10358;49.590;11.030;2023-07-31T19:24:02;21.00;99.90
20398;DHT22;10358;49.590;11.030;2023-07-31T19:26:28;21.00;99.90
20398;DHT22;10358;49.590;11.030;2023-07-31T19:28:53;20.90;99.90
20398;DHT22;10358;49.590;11.030;2023-07-31T19:31:19;20.80;99.90
20398;DHT22;10358;49.590;11.030;2023-07-31T19:33:44;20.80;99.90
20398;DHT22;10358;49.590;11.030;2023-07-31T19:36:10;20.60;99.90
20398;DHT22;10358;49.590;11.030;2023-07-31T19:38:35;20.60;99.90
20398;DHT22;10358;49.590;11.030;2023-07-31T19:41:01;20.50;99.90
20398;DHT22;10358;49.590;11.030;2023-07-31T19:43:27;20.50;99.90
20398;DHT22;10358;49.590;11.030;2023-07-31T19:45:52;20.40;99.90
20398;DHT22;10358;49.590;11.030;2023-07-31T19:48:18;20.40;99.90
20398;DHT22;10358;49.590;11.030;2023-07-31T19:50:47;20.30;99.90
20398;DHT22;10358;49.590;11.030;2023-07-31T19:53:12;20.30;99.90
20398;DHT22;10358;49.590;11.030;2023-07-31T19:55:38;20.30;99.90
20398;DHT22;10358;49.590;11.030;2023-07-31T19:58:03;20.30;99.90
20398;DHT22;10358;49.590;11.030;2023-07-31T20:00:30;20.20;99.90
20398;DHT22;10358;49.590;11.030;2023-07-31T20:02:56;20.20;99.90
20398;DHT22;10358;49.590;11.030;2023-07-31T20:05:21;20.10;99.90
20398;DHT22;10358;49.590;11.030;2023-07-31T20:07:47;20.10;99.90
20398;DHT22;10358;49.590;11.030;2023-07-31T20:10:14;20.00;99.90
20398;DHT22;10358;49.590;11.030;2023-07-31T20:12:40;20.00;99.90
20398;DHT22;10358;49.590;11.030;2023-07-31T20:15:06;19.90;99.90
20398;DHT22;10358;49.590;11.030;2023-07-31T20:17:31;19.80;99.90
20398;DHT22;10358;49.590;11.030;2023-07-31T20:19:57;19.80;99.90
20398;DHT22;10358;49.590;11.030;2023-07-31T20:22:23;19.60;99.90
20398;DHT22;10358;49.590;11.030;2023-07-31T20:24:49;19.50;99.90
20398;DHT22;10358;49.590;11.030;2023-07-31T20:27:21;19.40;99.90
20398;DHT22;10358;49.590;11.030;2023-07-31T20:29:47;19.30;99.90
20398;DHT22;10358;49.590;11.030;2023-07-31T20:32:12;19.20;99.90
20398;DHT22;10358;49.590;11.030;2023-07-31T20:34:38;19.10;99.90
20398;DHT22;10358;49.590;11.030;2023-07-31T20:37:04;19.00;99.90
20398;DHT22;10358;49.590;11.030;2023-07-31T20:39:29;19.00;99.90
20398;DHT22;10358;49.590;11.030;2023-07-31T20:41:55;18.90;99.90
20398;DHT22;10358;49.590;11.030;2023-07-31T20:44:20;18.80;99.90
20398;DHT22;10358;49.590;11.030;2023-07-31T20:46:46;18.80;99.90
20398;DHT22;10358;49.590;11.030;2023-07-31T20:49:12;18.70;99.90
20398;DHT22;10358;49.590;11.030;2023-07-31T20:51:38;18.60;99.90
20398;DHT22;10358;49.590;11.030;2023-07-31T20:54:05;18.60;99.90
20398;DHT22;10358;49.590;11.030;2023-07-31T20:56:31;18.50;99.90
20398;DHT22;10358;49.590;11.030;2023-07-31T20:58:56;18.40;99.90
20398;DHT22;10358;49.590;11.030;2023-07-31T21:01:22;18.40;99.90
20398;DHT22;10358;49.590;11.030;2023-07-31T21:03:47;18.30;99.90
20398;DHT22;10358;49.590;11.030;2023-07-31T21:06:13;18.30;99.90
20398;DHT22;10358;49.590;11.030;2023-07-31T21:08:41;18.20;99.90
20398;DHT22;10358;49.590;11.030;2023-07-31T21:11:06;18.20;99.90
20398;DHT22;10358;49.590;11.030;2023-07-31T21:13:32;18.10;99.90
20398;DHT22;10358;49.590;11.030;2023-07-31T21:15:58;18.10;99.90
20398;DHT22;10358;49.590;11.030;2023-07-31T21:18:24;18.10;99.90
20398;DHT22;10358;49.590;11.030;2023-07-31T21:20:50;18.10;99.90
20398;DHT22;10358;49.590;11.030;2023-07-31T21:23:19;18.00;99.90
20398;DHT22;10358;49.590;11.030;2023-07-31T21:25:44;18.00;99.90
20398;DHT22;10358;49.590;11.030;2023-07-31T21:28:10;18.00;99.90
20398;DHT22;10358;49.590;11.030;2023-07-31T21:30:37;17.90;99.90
20398;DHT22;10358;49.590;11.030;2023-07-31T21:33:02;17.90;99.90
20398;DHT22;10358;49.590;11.030;2023-07-31T21:35:28;17.90;99.90
20398;DHT22;10358;49.590;11.030;2023-07-31T21:37:54;17.90;99.90
20398;DHT22;10358;49.590;11.030;2023-07-31T21:40:21;17.90;99.90
20398;DHT22;10358;49.590;11.030;2023-07-31T21:42:48;17.90;99.90
20398;DHT22;10358;49.590;11.030;2023-07-31T21:45:14;17.90;99.90
20398;DHT22;10358;49.590;11.030;2023-07-31T21:47:40;17.80;99.90
20398;DHT22;10358;49.590;11.030;2023-07-31T21:50:05;17.80;99.90
20398;DHT22;10358;49.590;11.030;2023-07-31T21:52:31;17.80;99.90
20398;DHT22;10358;49.590;11.030;2023-07-31T21:54:57;17.80;99.90
20398;DHT22;10358;49.590;11.030;2023-07-31T21:57:22;17.80;99.90
20398;DHT22;10358;49.590;11.030;2023-07-31T21:59:48;17.80;99.90
20398;DHT22;10358;49.590;11.030;2023-07-31T22:02:13;17.80;99.90
20398;DHT22;10358;49.590;11.030;2023-07-31T22:04:39;17.80;99.90
20398;DHT22;10358;49.590;11.030;2023-07-31T22:07:09;17.80;99.90
20398;DHT22;10358;49.590;11.030;2023-07-31T22:09:34;17.80;99.90
20398;DHT22;10358;49.590;11.030;2023-07-31T22:12:00;17.80;99.90